Airfield :
LOGIN :

Register | Disclaimer

   EN    FR    IT 

 










Legend :    VFR   Marginal VFR   IFR   Intensive IFR   Very Intensive IFR
Visi :
Ceiling :
>= 8 km
>= 3000ft
5 to 8 km
1000 to 3000 ft
1500m to 5 km
500 to 1000 ft
800 to 1500m
200 to 500 ft
< 800m
< 200 ft
Symbols :   Thunderstorms  Fog  Heavy snow  Heavy precipitations  Wind > 20 kt
SIGMETs :     Misc.  Thunderstorms  Icing  Turbulence  Mountain Waves  Volcanic Ashes







- Airport Elevation : 517 ft
- IATA code : GML


UKKM - Antonov

CURRENT METAR :
  • 201430Z AUTO 21002MPS 150V270 9999 // NSC 15/M06 Q1024

EXPIRED METARs :
  • 201400Z AUTO VRB01MPS 9999 // NSC 15/M06 Q1025
  • 201330Z AUTO 14002MPS 100V180 9999 // NSC 15/M06 Q1025
  • 201300Z AUTO 16002MPS 110V190 9999 // NSC 15/M06 Q1025
  • 201230Z AUTO 18003MPS 150V250 9999 // NSC 16/M04 Q1025
  • 201200Z AUTO 16003MPS 130V200 9999 // NCD 15/M06 Q1025

Expired Forecast.
No reported NOTAMs for that airfield.



MET'MAP, your aeronautical weather chart ! - Copyright ORBIFLY December 2007 - Disclaimer

ORBIFLY MET'MAP TEAM :

Programming & Development : Alexandra Zaïnal
Concept & Development : Baudouin d'Aumeries
Co-Development & Prog : Marc-Olivier Méhu
Technical & hardware support : Manuel Goepfert

Contact : metmap@orbifly.com




SOURCES & CREDITS :

   NOAA